Time;durP1;ratioP1;P1;durP2;ratioP2;P2;SDS_P1;SDS_P2;PMS_P1;PMS_P2;Temp;Humidity;BMP_temperature;BMP_pressure;BME280_temperature;BME280_humidity;BME280_pressure;Samples;Min_cycle;Max_cycle;Signal;HPM_P1;HPM_P2
2023/06/07 00:02:23;;;;;;;6.90;2.80;;;;;;;19.31;59.92;101312.28;5015498;28;20416;-79
2023/06/07 00:04:49;;;;;;;9.35;3.00;;;;;;;19.20;60.45;101310.25;5013144;28;20490;-78
2023/06/07 00:07:15;;;;;;;6.60;2.80;;;;;;;19.23;60.23;101307.97;5013960;28;20471;-80
2023/06/07 00:09:41;;;;;;;7.97;3.00;;;;;;;19.29;60.43;101315.16;5012760;28;20446;-79
2023/06/07 00:12:07;;;;;;;8.23;3.17;;;;;;;19.24;60.30;101308.78;5015201;28;20437;-77
2023/06/07 00:14:32;;;;;;;8.90;2.90;;;;;;;19.24;60.41;101308.78;4997142;28;20387;-79
2023/06/07 00:16:58;;;;;;;7.93;3.17;;;;;;;19.29;60.17;101307.09;5014597;28;20380;-79
2023/06/07 00:19:25;;;;;;;9.87;3.00;;;;;;;19.30;60.26;101302.53;5014459;28;20391;-79
2023/06/07 00:21:54;;;;;;;7.27;3.20;;;;;;;19.43;59.68;101302.50;5013936;28;20396;-79
2023/06/07 00:24:20;;;;;;;8.65;2.78;;;;;;;19.37;59.80;101308.72;5015643;28;20467;-79
2023/06/07 00:26:46;;;;;;;6.72;3.08;;;;;;;19.38;60.06;101299.63;5014396;28;20463;-78
2023/06/07 00:29:13;;;;;;;8.15;2.80;;;;;;;19.39;59.97;101290.53;5013631;28;20451;-78
2023/06/07 00:31:39;;;;;;;9.13;2.88;;;;;;;19.43;59.69;101291.75;5013122;28;20376;-78
2023/06/07 00:34:05;;;;;;;8.27;3.33;;;;;;;19.38;59.99;101286.19;5014226;28;20486;-78
2023/06/07 00:36:30;;;;;;;6.78;3.10;;;;;;;19.46;59.77;101285.09;5013843;28;20998;-78
2023/06/07 00:38:56;;;;;;;6.70;2.90;;;;;;;19.58;59.48;101280.69;5013606;28;20715;-78
2023/06/07 00:41:22;;;;;;;9.30;3.30;;;;;;;19.56;59.64;101277.41;5013013;28;20416;-77
2023/06/07 00:43:48;;;;;;;8.70;3.17;;;;;;;19.55;59.59;101283.00;5012880;28;20388;-78
2023/06/07 00:46:25;;;;;;;7.28;3.00;;;;;;;19.57;59.71;101279.06;5012297;28;20487;-77
2023/06/07 00:48:51;;;;;;;9.27;3.75;;;;;;;19.46;60.26;101283.25;5012239;28;20896;-77
2023/06/07 00:51:17;;;;;;;8.95;3.70;;;;;;;19.52;60.17;101286.94;5011412;28;20861;-79
2023/06/07 00:53:47;;;;;;;10.10;3.80;;;;;;;19.74;59.78;101287.47;4994810;28;20403;-78
2023/06/07 00:56:13;;;;;;;8.60;4.10;;;;;;;19.77;59.46;101286.19;5005465;28;20432;-78
2023/06/07 00:58:38;;;;;;;12.40;4.30;;;;;;;19.83;59.26;101286.16;4992766;28;20397;-78
2023/06/07 01:01:05;;;;;;;9.97;3.70;;;;;;;19.85;59.12;101281.38;4992215;28;20909;-78
2023/06/07 01:03:34;;;;;;;7.82;3.53;;;;;;;19.91;58.98;101289.63;4993806;28;20857;-78
2023/06/07 01:06:02;;;;;;;9.82;4.10;;;;;;;20.07;58.67;101285.56;4994604;28;20747;-78
2023/06/07 01:08:28;;;;;;;9.13;3.60;;;;;;;20.14;58.32;101292.53;4976945;28;20406;-79
2023/06/07 01:10:55;;;;;;;12.27;3.33;;;;;;;20.10;58.55;101288.66;4993945;28;20404;-78
2023/06/07 01:13:21;;;;;;;7.63;3.47;;;;;;;20.06;58.43;101287.44;4993064;28;20389;-78
2023/06/07 01:15:47;;;;;;;8.43;3.72;;;;;;;20.08;58.53;101285.34;4992400;28;20473;-78
2023/06/07 01:18:13;;;;;;;10.93;4.10;;;;;;;20.12;58.57;101300.03;4994034;28;20484;-78
2023/06/07 01:20:43;;;;;;;7.20;3.47;;;;;;;20.05;58.52;101289.28;4995144;28;20414;-78
2023/06/07 01:23:12;;;;;;;9.40;3.40;;;;;;;20.13;58.43;101298.16;4976404;28;20476;-78
2023/06/07 01:25:38;;;;;;;9.35;3.42;;;;;;;20.15;58.49;101302.28;4992615;28;20409;-78
2023/06/07 01:28:05;;;;;;;8.77;3.83;;;;;;;20.12;58.54;101301.91;4993446;28;20463;-79
2023/06/07 01:30:32;;;;;;;7.35;3.30;;;;;;;20.00;58.76;101293.69;4991853;28;20382;-78
2023/06/07 01:33:00;;;;;;;7.13;3.33;;;;;;;19.93;58.86;101291.03;4992440;28;20394;-77
2023/06/07 01:35:27;;;;;;;8.75;3.45;;;;;;;19.81;58.71;101288.25;4994198;28;20500;-78
2023/06/07 01:37:53;;;;;;;7.25;3.45;;;;;;;19.64;58.71;101287.91;4995111;28;20393;-78
2023/06/07 01:40:20;;;;;;;11.13;3.72;;;;;;;19.65;58.39;101300.31;4999103;28;20522;-79
2023/06/07 01:42:46;;;;;;;9.68;5.05;;;;;;;19.60;58.75;101296.63;4998572;28;20393;-79
2023/06/07 01:45:13;;;;;;;13.60;6.50;;;;;;;19.54;59.07;101295.63;4996875;28;20449;-78
2023/06/07 01:47:39;;;;;;;10.13;5.40;;;;;;;19.49;59.23;101290.88;4996687;28;20397;-77
2023/06/07 01:50:05;;;;;;;13.80;6.03;;;;;;;19.55;59.41;101301.81;4995474;28;20405;-78
2023/06/07 01:52:31;;;;;;;12.30;5.63;;;;;;;19.49;59.35;101296.25;4978008;28;20409;-78
2023/06/07 01:54:57;;;;;;;9.33;4.70;;;;;;;19.44;59.19;101301.44;4996280;28;20867;-78
2023/06/07 01:57:55;;;;;;;10.25;5.00;;;;;;;19.45;59.10;101304.97;5008516;28;20520;-78
2023/06/07 02:00:43;;;;;;;10.00;4.43;;;;;;;19.55;58.43;101313.38;4980328;28;20413;-78
2023/06/07 02:03:22;;;;;;;7.63;4.20;;;;;;;19.55;58.37;101308.00;5006742;28;20454;-77
2023/06/07 02:05:56;;;;;;;11.88;4.70;;;;;;;19.51;58.10;101300.59;4988829;28;20414;-78
2023/06/07 02:08:31;;;;;;;7.53;3.65;;;;;;;19.51;57.75;101312.19;5003501;28;20387;-79
2023/06/07 02:10:58;;;;;;;10.73;3.92;;;;;;;19.52;57.75;101313.00;5012631;28;20383;-78
2023/06/07 02:13:26;;;;;;;10.25;3.67;;;;;;;19.57;57.53;101311.34;5012547;28;20399;-79
2023/06/07 02:15:52;;;;;;;9.55;3.05;;;;;;;19.62;57.21;101311.47;5012758;28;20477;-80
2023/06/07 02:18:20;;;;;;;8.40;3.20;;;;;;;19.50;57.21;101318.59;4996823;28;20480;-78
2023/06/07 02:20:46;;;;;;;8.75;3.03;;;;;;;19.54;57.11;101322.50;4996897;28;20408;-78
2023/06/07 02:23:13;;;;;;;6.13;2.70;;;;;;;19.57;56.78;101318.56;5012532;28;20392;-78
2023/06/07 02:25:38;;;;;;;9.55;3.42;;;;;;;19.56;56.72;101316.91;4997086;28;20836;-77
2023/06/07 02:28:04;;;;;;;6.27;2.50;;;;;;;19.53;56.59;101312.78;5000800;28;20421;-76
2023/06/07 02:30:29;;;;;;;7.30;2.58;;;;;;;19.59;56.42;101320.00;5011283;28;20406;-78
2023/06/07 02:32:55;;;;;;;8.17;2.47;;;;;;;19.62;56.28;101321.44;5002995;28;20476;-77
2023/06/07 02:35:22;;;;;;;8.60;2.58;;;;;;;19.53;56.14;101317.34;5014186;28;20428;-78
2023/06/07 02:37:48;;;;;;;7.20;2.42;;;;;;;19.57;56.21;101318.56;5005530;28;20396;-77
2023/06/07 02:40:14;;;;;;;7.85;2.50;;;;;;;19.60;56.06;101321.63;5012973;28;20408;-78
2023/06/07 02:42:49;;;;;;;7.60;2.70;;;;;;;19.62;55.99;101318.75;5003077;28;20386;-79
2023/06/07 02:45:15;;;;;;;7.03;2.60;;;;;;;19.58;55.88;101326.41;5005055;28;20422;-78
2023/06/07 02:47:41;;;;;;;8.87;2.70;;;;;;;19.66;55.95;101333.41;5011879;28;20408;-78
2023/06/07 02:50:07;;;;;;;6.32;2.60;;;;;;;19.55;56.09;101337.59;4996795;28;20390;-78
2023/06/07 02:52:33;;;;;;;9.15;2.78;;;;;;;19.46;56.32;101342.41;5009104;28;20865;-79
2023/06/07 02:54:59;;;;;;;6.70;2.80;;;;;;;19.47;56.30;101332.47;5002772;28;20409;-79
2023/06/07 02:57:26;;;;;;;10.17;2.83;;;;;;;19.39;56.53;101344.31;5013705;28;20411;-78
2023/06/07 02:59:54;;;;;;;8.77;2.42;;;;;;;19.28;56.78;101344.94;5013733;28;20777;-77
2023/06/07 03:02:20;;;;;;;6.30;2.58;;;;;;;19.19;56.91;101352.41;5012872;28;20900;-78
2023/06/07 03:04:46;;;;;;;9.50;2.20;;;;;;;19.20;56.83;101342.50;5014282;28;20380;-77
2023/06/07 03:07:12;;;;;;;5.63;2.20;;;;;;;19.21;56.88;101342.31;5013979;28;20372;-78
2023/06/07 03:09:39;;;;;;;7.47;2.63;;;;;;;19.19;56.63;101340.84;5013710;28;20376;-77
2023/06/07 03:12:05;;;;;;;6.35;2.38;;;;;;;19.10;56.63;101351.00;5013287;28;20388;-77
2023/06/07 03:14:30;;;;;;;6.20;2.30;;;;;;;19.18;56.25;101345.41;5013992;28;20376;-77
2023/06/07 03:16:56;;;;;;;6.03;2.22;;;;;;;19.24;56.12;101346.41;5019648;28;20795;-80
2023/06/07 03:19:21;;;;;;;8.13;2.53;;;;;;;19.30;55.77;101356.31;5014640;28;20936;-78
2023/06/07 03:21:47;;;;;;;9.53;2.70;;;;;;;19.30;55.57;101350.94;5013712;28;20463;-78
2023/06/07 03:24:16;;;;;;;9.45;2.60;;;;;;;19.33;55.73;101363.94;5013340;28;20465;-78
2023/06/07 03:26:42;;;;;;;7.03;2.40;;;;;;;19.30;55.85;101356.31;5012989;28;20412;-77
2023/06/07 03:29:09;;;;;;;8.82;2.60;;;;;;;19.29;55.74;101355.50;5013195;28;20392;-77
2023/06/07 03:31:34;;;;;;;6.55;2.40;;;;;;;19.38;55.78;101366.84;5013215;28;20422;-77
2023/06/07 03:34:00;;;;;;;7.17;2.47;;;;;;;19.41;55.35;101361.03;5013202;28;20388;-77
2023/06/07 03:36:28;;;;;;;7.47;2.42;;;;;;;19.45;55.61;101364.13;5016091;28;20458;-79
2023/06/07 03:38:57;;;;;;;9.02;2.88;;;;;;;19.49;55.36;101368.03;5013344;28;20395;-79
2023/06/07 03:41:23;;;;;;;6.13;2.28;;;;;;;19.47;55.38;101370.13;5019261;28;20446;-80
2023/06/07 03:43:48;;;;;;;8.93;2.60;;;;;;;19.41;55.48;101368.25;5033910;28;20400;-79
2023/06/07 03:46:14;;;;;;;8.48;2.50;;;;;;;19.32;55.67;101365.00;5032350;28;20392;-79
2023/06/07 03:48:39;;;;;;;6.20;2.33;;;;;;;19.28;55.67;101367.28;5030523;28;20407;-80
2023/06/07 03:51:06;;;;;;;11.20;2.75;;;;;;;19.32;55.83;101365.00;5024116;28;20388;-80
2023/06/07 03:53:32;;;;;;;9.63;2.38;;;;;;;19.20;55.96;101351.38;5017623;28;20458;-80
2023/06/07 03:55:57;;;;;;;7.30;2.50;;;;;;;19.23;56.02;101359.03;5016067;28;20416;-79
2023/06/07 03:58:24;;;;;;;8.37;2.50;;;;;;;19.22;55.75;101367.31;5015188;28;20482;-79
2023/06/07 04:00:51;;;;;;;7.18;2.60;;;;;;;19.15;55.98;101370.00;5007805;28;20481;-78
2023/06/07 04:03:21;;;;;;;6.22;2.55;;;;;;;19.04;56.30;101382.22;5010546;28;20396;-79
2023/06/07 04:05:47;;;;;;;5.97;2.40;;;;;;;19.19;55.96;101383.84;5012494;28;20428;-78
2023/06/07 04:08:13;;;;;;;8.73;2.63;;;;;;;19.32;55.73;101386.50;5012824;28;20514;-78
2023/06/07 04:10:41;;;;;;;7.60;2.37;;;;;;;19.27;55.66;101383.63;5012405;28;20567;-81
2023/06/07 04:13:06;;;;;;;9.02;2.78;;;;;;;19.25;55.70;101383.84;5013146;28;20392;-80
2023/06/07 04:15:31;;;;;;;8.20;2.78;;;;;;;19.33;55.57;101388.16;4997055;28;20384;-79
2023/06/07 04:17:57;;;;;;;7.07;2.60;;;;;;;19.21;55.89;101396.06;5013243;28;20391;-78
2023/06/07 04:20:23;;;;;;;7.87;2.70;;;;;;;19.19;55.83;101398.09;5013147;28;20412;-78
2023/06/07 04:22:51;;;;;;;7.60;2.60;;;;;;;19.26;55.71;101393.53;5013582;28;20431;-80
2023/06/07 04:25:17;;;;;;;8.15;2.78;;;;;;;19.20;55.57;101399.75;5013073;28;20391;-78
2023/06/07 04:27:48;;;;;;;6.97;2.45;;;;;;;19.28;55.75;101401.38;5012681;28;20376;-77
2023/06/07 04:30:15;;;;;;;9.98;2.60;;;;;;;19.25;55.58;101402.66;5012753;28;20434;-77
2023/06/07 04:32:43;;;;;;;6.15;2.40;;;;;;;19.28;55.63;101398.69;5012707;28;20427;-78
2023/06/07 04:35:09;;;;;;;8.88;2.80;;;;;;;19.22;55.56;101388.81;5012589;28;20884;-78
2023/06/07 04:37:35;;;;;;;6.63;2.60;;;;;;;19.12;55.89;101404.53;5012171;28;20380;-78
2023/06/07 04:40:00;;;;;;;7.80;2.80;;;;;;;19.00;56.12;101397.13;5012337;28;20964;-79
2023/06/07 04:42:27;;;;;;;9.30;2.63;;;;;;;19.21;55.76;101405.97;5012313;28;20715;-78
2023/06/07 04:44:53;;;;;;;9.25;2.80;;;;;;;19.45;55.32;101409.84;5012551;28;20461;-78
2023/06/07 04:47:19;;;;;;;8.23;2.77;;;;;;;19.49;55.00;101416.44;5009517;28;20407;-79
2023/06/07 04:49:44;;;;;;;6.78;2.47;;;;;;;19.48;54.94;101428.22;5012475;28;20407;-78
2023/06/07 04:52:13;;;;;;;8.63;2.67;;;;;;;19.40;55.16;101413.16;5016356;28;20885;-79
2023/06/07 04:54:39;;;;;;;8.07;3.17;;;;;;;19.39;55.25;101418.72;4992229;28;20921;-83
2023/06/07 04:57:08;;;;;;;9.88;2.78;;;;;;;19.55;54.93;101407.50;5012707;28;20423;-80
2023/06/07 04:59:41;;;;;;;4.68;2.33;;;;;;;19.59;54.78;101411.44;4997628;28;20884;-79
2023/06/07 05:02:07;;;;;;;6.50;2.50;;;;;;;19.56;54.86;101419.09;5013263;28;20400;-78
2023/06/07 05:04:33;;;;;;;5.10;2.43;;;;;;;19.44;54.67;101418.94;5012152;28;20416;-78
2023/06/07 05:06:58;;;;;;;11.20;2.50;;;;;;;19.41;54.25;101432.78;5008771;28;20491;-76
2023/06/07 05:09:26;;;;;;;7.30;2.47;;;;;;;19.40;54.53;101423.09;5011605;28;20474;-79
2023/06/07 05:11:52;;;;;;;6.97;2.38;;;;;;;19.64;54.06;101411.63;5008108;28;20391;-78
2023/06/07 05:14:17;;;;;;;7.38;2.53;;;;;;;19.76;53.61;101416.38;5008385;28;20864;-79
2023/06/07 05:16:44;;;;;;;6.80;2.43;;;;;;;19.57;53.81;101415.38;5012545;28;20463;-78
2023/06/07 05:19:10;;;;;;;9.00;2.90;;;;;;;19.68;54.00;101410.16;5012354;28;20423;-79
2023/06/07 05:21:37;;;;;;;9.27;2.70;;;;;;;19.88;53.68;101408.44;5010521;28;20415;-78
2023/06/07 05:24:02;;;;;;;6.40;2.60;;;;;;;19.89;53.35;101423.56;5010441;28;20391;-80
2023/06/07 05:26:28;;;;;;;5.97;2.50;;;;;;;19.72;53.12;101421.31;5011883;28;20388;-78
2023/06/07 05:28:55;;;;;;;5.72;2.40;;;;;;;19.68;53.22;101428.16;5011806;28;20868;-78
2023/06/07 05:31:20;;;;;;;6.95;2.40;;;;;;;19.82;53.00;101440.53;5013740;28;20380;-79
2023/06/07 05:33:46;;;;;;;6.43;2.38;;;;;;;19.83;52.85;101438.69;5012774;28;20402;-78
2023/06/07 05:36:11;;;;;;;5.70;2.37;;;;;;;19.90;52.82;101433.25;5011842;28;20392;-78
2023/06/07 05:38:37;;;;;;;4.80;2.33;;;;;;;20.05;52.72;101440.00;5012099;28;20860;-79
2023/06/07 05:41:03;;;;;;;5.10;2.58;;;;;;;20.05;52.60;101437.31;5011011;28;20510;-80
2023/06/07 05:43:28;;;;;;;7.60;2.38;;;;;;;19.98;52.81;101436.53;5012201;28;20849;-79
2023/06/07 05:45:54;;;;;;;6.67;2.70;;;;;;;20.07;52.69;101423.66;4994764;28;20456;-79
2023/06/07 05:48:20;;;;;;;11.63;3.00;;;;;;;20.26;52.77;101438.06;4998102;28;20397;-81
2023/06/07 05:50:46;;;;;;;7.10;2.50;;;;;;;20.18;52.36;101444.50;4991950;28;20389;-79
2023/06/07 05:53:12;;;;;;;6.22;2.50;;;;;;;20.08;52.65;101446.84;4994599;28;20396;-80
2023/06/07 05:55:38;;;;;;;5.47;2.47;;;;;;;20.12;52.80;101444.56;5004019;28;20427;-79
2023/06/07 05:58:03;;;;;;;7.80;2.70;;;;;;;20.19;52.67;101432.69;4997693;28;20399;-79
2023/06/07 06:00:29;;;;;;;5.47;2.38;;;;;;;20.38;52.27;101424.69;5002925;28;20415;-78
2023/06/07 06:02:56;;;;;;;5.03;2.53;;;;;;;20.28;52.14;101421.69;5008654;28;20384;-79
2023/06/07 06:05:27;;;;;;;8.57;2.53;;;;;;;20.23;52.65;101423.13;5000703;28;20481;-80
2023/06/07 06:07:53;;;;;;;7.43;2.95;;;;;;;20.32;52.47;101428.28;4993817;28;20471;-79
2023/06/07 06:10:19;;;;;;;6.90;2.35;;;;;;;20.61;52.09;101432.22;5012337;28;20443;-78
2023/06/07 06:12:44;;;;;;;7.50;2.55;;;;;;;20.64;51.76;101428.28;5013057;28;20392;-79
2023/06/07 06:15:10;;;;;;;5.97;2.57;;;;;;;20.70;51.38;101425.53;5009362;28;20386;-80
2023/06/07 06:17:35;;;;;;;7.15;2.50;;;;;;;20.57;51.54;101436.38;5000702;28;20425;-79
2023/06/07 06:20:02;;;;;;;6.33;2.67;;;;;;;20.69;51.37;101439.22;4994304;28;20416;-79
2023/06/07 06:22:28;;;;;;;6.55;2.47;;;;;;;20.62;51.30;101442.78;4997279;28;20883;-79
2023/06/07 06:24:53;;;;;;;6.07;2.50;;;;;;;20.67;51.17;101433.22;5015539;28;20392;-81
2023/06/07 06:27:20;;;;;;;5.37;2.60;;;;;;;20.80;51.20;101447.41;5016201;28;20395;-78
2023/06/07 06:29:46;;;;;;;5.85;2.72;;;;;;;20.78;51.22;101449.50;5016335;28;20388;-78
2023/06/07 06:32:12;;;;;;;5.10;2.60;;;;;;;21.01;50.69;101450.75;4998582;28;20810;-82
2023/06/07 06:35:14;;;;;;;5.13;2.70;;;;;;;21.13;50.83;101450.88;5015886;28;20402;-80
2023/06/07 06:37:39;;;;;;;4.40;2.53;;;;;;;20.93;50.42;101451.03;5014521;28;20368;-80
2023/06/07 06:40:06;;;;;;;4.63;2.40;;;;;;;21.16;50.56;101450.44;5015910;28;20809;-80
2023/06/07 06:42:32;;;;;;;6.97;2.60;;;;;;;21.01;50.33;101448.06;5014901;28;20391;-79
2023/06/07 06:44:57;;;;;;;4.68;2.70;;;;;;;21.02;50.52;101444.31;4997285;28;20384;-79
2023/06/07 06:47:25;;;;;;;7.10;2.90;;;;;;;21.20;50.57;101451.63;5011607;28;20389;-79
2023/06/07 06:49:51;;;;;;;6.35;2.75;;;;;;;21.44;50.33;101449.91;4992824;28;20423;-79
2023/06/07 06:52:17;;;;;;;7.57;2.90;;;;;;;21.37;49.98;101443.75;5015414;28;20401;-79
2023/06/07 06:54:42;;;;;;;4.87;2.47;;;;;;;21.26;50.20;101450.72;5016628;28;20376;-78
2023/06/07 06:57:08;;;;;;;4.93;2.30;;;;;;;21.45;49.99;101450.75;5015635;28;20499;-79
2023/06/07 06:59:34;;;;;;;7.25;2.83;;;;;;;21.61;49.96;101452.88;5015990;28;20725;-79
2023/06/07 07:01:59;;;;;;;5.53;2.50;;;;;;;21.57;49.73;101449.81;5015481;28;20857;-79
2023/06/07 07:04:25;;;;;;;5.40;2.73;;;;;;;21.56;49.54;101455.41;5014864;28;20748;-80
2023/06/07 07:06:50;;;;;;;6.07;2.50;;;;;;;21.58;49.70;101456.84;5033851;28;20781;-79
2023/06/07 07:09:16;;;;;;;7.40;2.60;;;;;;;21.67;49.56;101445.75;5022543;28;20380;-80
2023/06/07 07:11:41;;;;;;;6.13;2.50;;;;;;;21.83;49.64;101455.91;5037086;28;20384;-79
2023/06/07 07:14:07;;;;;;;6.50;2.50;;;;;;;21.89;49.36;101448.78;5015453;28;20416;-80
2023/06/07 07:16:32;;;;;;;4.67;2.30;;;;;;;21.81;49.59;101449.94;5018123;28;20391;-81
2023/06/07 07:18:58;;;;;;;6.22;3.08;;;;;;;21.85;49.50;101451.13;4999736;28;20377;-78
2023/06/07 07:21:25;;;;;;;5.90;2.30;;;;;;;21.95;49.43;101445.19;5000140;28;20408;-78
2023/06/07 07:23:50;;;;;;;7.30;3.40;;;;;;;21.97;49.38;101448.50;4997137;28;20851;-78
2023/06/07 07:26:16;;;;;;;8.30;3.07;;;;;;;22.10;49.43;101439.38;5016762;28;20879;-79
2023/06/07 07:28:41;;;;;;;7.70;2.90;;;;;;;22.08;49.41;101442.31;5016541;28;20729;-79
2023/06/07 07:31:07;;;;;;;7.85;2.88;;;;;;;22.12;49.23;101448.88;5014729;28;20412;-79
2023/06/07 07:33:32;;;;;;;7.93;2.73;;;;;;;22.11;49.40;101460.75;5014332;28;20372;-78
2023/06/07 07:36:00;;;;;;;5.70;2.80;;;;;;;22.19;49.05;101459.59;5013746;28;20468;-78
2023/06/07 07:38:26;;;;;;;7.45;2.92;;;;;;;22.31;49.11;101449.69;5014471;28;20857;-78
2023/06/07 07:40:52;;;;;;;6.90;2.90;;;;;;;22.18;49.21;101457.94;4994508;28;21079;-79
2023/06/07 07:43:17;;;;;;;7.18;3.05;;;;;;;22.17;49.06;101448.22;4995023;28;20386;-80
2023/06/07 07:45:43;;;;;;;7.07;2.90;;;;;;;22.27;48.98;101455.78;4996335;28;20382;-81
2023/06/07 07:48:08;;;;;;;6.23;2.90;;;;;;;22.26;48.59;101454.97;4978433;28;20390;-79
2023/06/07 07:50:37;;;;;;;7.00;2.90;;;;;;;22.28;48.91;101460.13;4995090;28;20385;-78
2023/06/07 07:53:03;;;;;;;5.30;2.72;;;;;;;22.05;48.93;101466.25;4995265;28;20404;-79
2023/06/07 07:55:30;;;;;;;5.88;2.97;;;;;;;22.01;49.06;101460.47;4995267;28;20858;-77
2023/06/07 07:57:56;;;;;;;7.53;3.10;;;;;;;22.03;49.07;101465.66;4995782;28;20456;-79
2023/06/07 08:00:23;;;;;;;7.75;2.97;;;;;;;22.06;49.48;101462.50;4995743;28;20876;-81
2023/06/07 08:02:49;;;;;;;6.93;3.00;;;;;;;22.18;49.49;101455.25;4994873;28;20449;-79
2023/06/07 08:05:14;;;;;;;6.53;2.83;;;;;;;22.29;49.20;101450.97;4998600;28;20451;-78
2023/06/07 08:07:40;;;;;;;7.68;2.80;;;;;;;22.35;49.16;101457.34;5014343;28;20399;-77
2023/06/07 08:10:06;;;;;;;3.85;2.60;;;;;;;22.35;48.84;101462.75;4999259;28;20432;-79
2023/06/07 08:12:32;;;;;;;5.63;2.72;;;;;;;22.41;48.67;101459.13;5016454;28;20392;-80
2023/06/07 08:14:57;;;;;;;8.20;3.00;;;;;;;22.40;48.69;101468.25;5014234;28;20384;-81
2023/06/07 08:17:23;;;;;;;8.60;3.13;;;;;;;;;;5013243;28;20788;-77
2023/06/07 08:19:48;;;;;;;5.60;2.70;;;;;;;22.73;48.50;101478.56;5013584;28;20392;-78
2023/06/07 08:22:14;;;;;;;7.30;2.90;;;;;;;22.72;48.14;101474.22;5014308;28;20391;-80
2023/06/07 08:24:39;;;;;;;8.85;2.97;;;;;;;22.79;48.35;101471.41;4996687;28;20384;-78
2023/06/07 08:27:06;;;;;;;5.27;2.67;;;;;;;22.82;48.13;101476.38;5016123;28;20483;-78
2023/06/07 08:29:31;;;;;;;11.18;2.78;;;;;;;22.95;47.84;101476.13;5013845;28;20894;-78
2023/06/07 08:31:57;;;;;;;7.73;2.60;;;;;;;22.91;48.13;101477.66;5014105;28;20383;-78
2023/06/07 08:34:28;;;;;;;6.65;2.60;;;;;;;23.07;47.81;101484.28;5013261;28;20384;-79
2023/06/07 08:36:54;;;;;;;8.02;2.85;;;;;;;22.86;47.55;101481.06;4995233;28;20399;-79
2023/06/07 08:39:21;;;;;;;8.85;2.90;;;;;;;22.94;47.34;101481.75;5013009;28;20390;-79
2023/06/07 08:41:46;;;;;;;7.43;2.75;;;;;;;23.05;47.18;101499.94;5012955;28;20400;-77
2023/06/07 08:44:12;;;;;;;6.37;2.30;;;;;;;22.99;47.43;101490.00;4996133;28;20391;-79
2023/06/07 08:46:37;;;;;;;8.82;2.78;;;;;;;23.07;46.89;101484.28;5012234;28;20438;-78
2023/06/07 08:49:05;;;;;;;7.57;2.90;;;;;;;22.91;46.45;101496.59;5013166;28;20380;-78
2023/06/07 08:51:36;;;;;;;5.90;2.35;;;;;;;22.90;46.71;101497.63;5014019;28;20511;-81
2023/06/07 08:54:02;;;;;;;5.00;2.40;;;;;;;22.97;46.54;101494.81;5013723;28;20377;-78
2023/06/07 08:56:31;;;;;;;5.97;2.30;;;;;;;22.93;46.37;101497.16;5013603;28;20904;-79
2023/06/07 08:58:57;;;;;;;7.22;2.53;;;;;;;23.03;46.66;101496.56;5013522;28;20372;-79
2023/06/07 09:01:23;;;;;;;6.77;2.67;;;;;;;23.16;45.96;101490.19;5013591;28;20414;-79
2023/06/07 09:03:52;;;;;;;5.50;2.47;;;;;;;23.02;46.41;101479.53;5016784;28;20446;-79
2023/06/07 09:06:19;;;;;;;7.80;2.80;;;;;;;23.25;46.42;101486.88;5015131;28;20455;-79
2023/06/07 09:08:46;;;;;;;5.57;2.42;;;;;;;23.19;45.98;101486.97;5013899;28;20375;-79
2023/06/07 09:11:11;;;;;;;4.85;2.40;;;;;;;23.15;45.96;101489.34;5013326;28;20380;-78
2023/06/07 09:13:37;;;;;;;7.57;2.53;;;;;;;23.22;45.88;101486.50;5013209;28;20455;-80
2023/06/07 09:16:02;;;;;;;9.35;2.90;;;;;;;23.28;45.60;101488.25;5011589;28;20380;-78
2023/06/07 09:18:54;;;;;;;5.67;2.50;;;;;;;23.32;45.68;101491.31;5012568;28;20377;-80
2023/06/07 09:21:29;;;;;;;4.22;2.38;;;;;;;23.21;45.70;101492.97;5014031;28;20404;-79
2023/06/07 09:23:58;;;;;;;7.38;2.40;;;;;;;23.15;45.84;101489.34;5016787;28;20384;-79
2023/06/07 09:26:36;;;;;;;4.82;2.53;;;;;;;23.07;45.78;101489.69;5013310;28;20887;-79
2023/06/07 09:29:06;;;;;;;6.57;2.65;;;;;;;23.02;45.96;101494.94;5012950;28;20403;-79
2023/06/07 09:31:34;;;;;;;4.90;2.60;;;;;;;23.09;45.81;101490.28;4993756;28;20392;-79
2023/06/07 09:34:23;;;;;;;4.63;2.35;;;;;;;23.13;45.84;101482.53;5013490;28;20920;-80
2023/06/07 09:36:50;;;;;;;5.70;2.75;;;;;;;23.15;45.92;101491.22;5013328;28;20400;-79
2023/06/07 09:39:21;;;;;;;5.50;2.60;;;;;;;23.23;46.05;101488.19;5011639;28;20396;-79
2023/06/07 09:41:46;;;;;;;5.63;2.30;;;;;;;23.36;45.52;101489.81;5012294;28;20403;-79
2023/06/07 09:44:30;;;;;;;8.35;2.63;;;;;;;23.44;46.06;101489.44;5014969;28;20885;-77
2023/06/07 09:46:57;;;;;;;6.80;2.40;;;;;;;23.48;45.33;101487.94;5016545;28;20384;-79
2023/06/07 09:49:34;;;;;;;9.50;2.67;;;;;;;23.45;45.35;101483.78;5019293;28;20482;-78
2023/06/07 09:52:03;;;;;;;6.65;2.60;;;;;;;23.54;45.86;101484.25;5002162;28;20959;-78
2023/06/07 09:54:39;;;;;;;7.25;2.70;;;;;;;23.77;45.58;101488.81;5018495;28;20510;-79
2023/06/07 09:57:26;;;;;;;6.40;2.65;;;;;;;23.90;45.16;101486.91;5018204;28;20423;-79
2023/06/07 09:59:58;;;;;;;7.05;2.85;;;;;;;23.79;44.96;101481.25;5014974;28;20395;-78
2023/06/07 10:02:28;;;;;;;9.85;2.80;;;;;;;23.74;45.02;101488.47;4999410;28;20383;-82
2023/06/07 10:04:56;;;;;;;7.78;2.47;;;;;;;24.05;44.94;101476.38;5014685;28;20388;-78
2023/06/07 10:07:27;;;;;;;4.37;2.10;;;;;;;24.02;44.65;101483.09;5001530;28;20403;-80
2023/06/07 10:09:56;;;;;;;8.80;2.70;;;;;;;23.88;44.22;101484.44;5015447;28;20935;-78
2023/06/07 10:12:22;;;;;;;5.63;2.30;;;;;;;24.08;44.05;101480.50;5014537;28;20398;-78
2023/06/07 10:14:49;;;;;;;5.68;2.42;;;;;;;24.05;44.09;101487.19;5014348;28;20396;-79
2023/06/07 10:17:16;;;;;;;5.68;2.58;;;;;;;23.72;44.23;101477.06;5015249;28;20396;-77
2023/06/07 10:19:44;;;;;;;7.30;2.97;;;;;;;23.89;44.49;101466.31;4996538;28;21002;-78
2023/06/07 10:22:16;;;;;;;6.95;2.50;;;;;;;24.15;43.44;101475.75;4999699;28;20395;-77
2023/06/07 10:25:16;;;;;;;6.45;2.10;;;;;;;24.09;43.04;101471.28;5014651;28;20470;-79
2023/06/07 10:27:57;;;;;;;6.57;2.30;;;;;;;23.72;43.75;101475.16;5002866;28;20368;-79
2023/06/07 10:30:25;;;;;;;4.75;2.30;;;;;;;23.70;43.78;101482.69;5014897;28;20769;-79
2023/06/07 10:32:52;;;;;;;5.68;2.20;;;;;;;23.81;43.48;101470.22;5016338;28;20546;-79
2023/06/07 10:35:20;;;;;;;6.70;2.50;;;;;;;23.88;43.69;101465.50;4999233;28;20439;-80
2023/06/07 10:37:50;;;;;;;6.38;2.58;;;;;;;24.05;43.47;101473.66;5014349;28;20384;-78
2023/06/07 10:40:16;;;;;;;6.28;2.30;;;;;;;24.19;42.74;101463.38;5015450;28;20849;-79
2023/06/07 10:42:44;;;;;;;6.88;2.53;;;;;;;24.14;43.01;101464.06;4996417;28;20500;-79
2023/06/07 10:45:15;;;;;;;6.43;2.50;;;;;;;24.21;42.96;101463.94;5015010;28;20393;-77
2023/06/07 10:47:41;;;;;;;5.43;2.20;;;;;;;24.07;43.00;101466.13;5015502;28;20453;-77
2023/06/07 10:50:07;;;;;;;6.85;2.15;;;;;;;24.16;42.85;101470.06;5016400;28;20427;-83
2023/06/07 10:52:33;;;;;;;5.68;2.35;;;;;;;24.26;43.11;101461.31;4998714;28;20420;-78
2023/06/07 10:54:58;;;;;;;4.28;2.13;;;;;;;24.25;42.69;101467.78;4997687;28;20540;-77
2023/06/07 10:57:35;;;;;;;5.10;2.60;;;;;;;24.36;42.35;101466.09;5004116;28;20759;-79
2023/06/07 11:00:33;;;;;;;6.57;2.30;;;;;;;24.61;42.64;101452.19;4998677;28;20428;-78
2023/06/07 11:03:05;;;;;;;5.63;2.53;;;;;;;24.56;41.76;101442.09;4997256;28;20723;-79
2023/06/07 11:05:55;;;;;;;6.07;2.35;;;;;;;24.64;42.41;101449.00;4996514;28;20898;-82
2023/06/07 11:08:23;;;;;;;5.93;2.30;;;;;;;24.52;42.17;101459.06;4994268;28;20389;-76
2023/06/07 11:10:49;;;;;;;6.28;2.53;;;;;;;24.39;42.36;101457.47;4996577;28;20397;-78
2023/06/07 11:13:15;;;;;;;4.50;2.50;;;;;;;24.56;42.19;101447.53;4994902;28;20386;-77
2023/06/07 11:15:40;;;;;;;4.00;2.17;;;;;;;24.83;41.87;101436.03;4995158;28;20929;-77
2023/06/07 11:18:10;;;;;;;6.83;2.50;;;;;;;24.94;41.52;101447.84;4998128;28;20386;-78
2023/06/07 11:20:57;;;;;;;4.85;2.65;;;;;;;24.78;41.37;101442.19;4999421;28;20494;-78
2023/06/07 11:23:28;;;;;;;5.97;2.25;;;;;;;24.73;41.46;101452.13;4995467;28;20385;-76
2023/06/07 11:25:53;;;;;;;6.63;2.20;;;;;;;24.69;40.85;101438.25;4994519;28;20472;-78
2023/06/07 11:28:38;;;;;;;4.93;2.40;;;;;;;24.69;41.50;101437.44;4994458;28;20453;-78